Time;durP1;ratioP1;P1;durP2;ratioP2;P2;SDS_P1;SDS_P2;PMS_P1;PMS_P2;Temp;Humidity;BMP_temperature;BMP_pressure;BME280_temperature;BME280_humidity;BME280_pressure;Samples;Min_cycle;Max_cycle;Signal;HPM_P1;HPM_P2
2023/09/03 00:03:06;;;;;;;11.02;8.20;;;13.70;99.90;;;;;;10537074;28;20195;-79
2023/09/03 00:08:27;;;;;;;12.45;8.18;;;13.70;1.00;;;;;;10565340;28;20247;-79
2023/09/03 00:13:48;;;;;;;12.35;8.63;;;13.50;2.90;;;;;;10550835;28;20224;-80
2023/09/03 00:19:10;;;;;;;15.60;9.93;;;13.50;99.90;;;;;;10537238;28;20196;-79
2023/09/03 00:24:34;;;;;;;14.07;8.57;;;13.50;99.90;;;;;;10564470;28;20196;-80
2023/09/03 00:29:55;;;;;;;17.52;9.15;;;13.50;1.00;;;;;;10565452;28;20200;-80
2023/09/03 00:35:16;;;;;;;14.52;9.27;;;13.40;1.00;;;;;;10550469;28;20224;-78
2023/09/03 00:40:38;;;;;;;16.80;9.75;;;13.40;46.30;;;;;;10565501;28;20343;-79
2023/09/03 00:46:04;;;;;;;16.48;8.95;;;13.40;1.00;;;;;;10563681;28;20221;-80
2023/09/03 00:51:26;;;;;;;10.30;8.18;;;13.40;1.00;;;;;;10577706;28;20235;-79
2023/09/03 00:56:49;;;;;;;10.95;8.43;;;13.30;1.00;;;;;;10565245;28;20228;-79
2023/09/03 01:02:14;;;;;;;8.57;6.68;;;13.30;99.90;;;;;;10548847;28;20240;-79
2023/09/03 01:07:35;;;;;;;9.68;6.40;;;13.20;1.00;;;;;;10533912;28;20210;-78
2023/09/03 01:13:09;;;;;;;8.15;6.22;;;13.20;1.00;;;;;;10533818;28;20216;-79
2023/09/03 01:18:31;;;;;;;8.60;5.82;;;13.10;99.90;;;;;;10563146;28;20205;-78
2023/09/03 01:24:23;;;;;;;6.57;5.47;;;13.00;1.00;;;;;;10561779;28;20192;-79
2023/09/03 01:29:44;;;;;;;9.70;6.35;;;13.00;99.90;;;;;;10548075;28;20356;-79
2023/09/03 01:35:07;;;;;;;7.80;6.03;;;13.00;1.00;;;;;;10547155;28;20223;-79
2023/09/03 01:40:28;;;;;;;6.95;5.57;;;12.90;99.90;;;;;;10561320;28;20275;-80
2023/09/03 01:46:06;;;;;;;6.80;5.10;;;12.90;99.90;;;;;;10561571;28;20243;-79
2023/09/03 01:51:33;;;;;;;7.55;5.47;;;12.90;1.00;;;;;;10531616;28;20299;-79
2023/09/03 01:56:54;;;;;;;7.80;6.20;;;12.80;1.00;;;;;;10560813;28;20275;-78
2023/09/03 02:02:18;;;;;;;9.02;5.38;;;12.70;1.00;;;;;;10532438;28;20516;-81
2023/09/03 02:07:40;;;;;;;8.32;5.68;;;12.70;1.00;;;;;;10546255;28;20404;-79
2023/09/03 02:13:01;;;;;;;5.68;5.07;;;12.70;99.90;;;;;;10546228;28;20232;-79
2023/09/03 02:18:23;;;;;;;8.23;5.70;;;12.60;99.90;;;;;;10546237;28;20280;-79
2023/09/03 02:23:45;;;;;;;6.13;4.93;;;12.50;99.90;;;;;;10545915;28;20203;-79
2023/09/03 02:29:08;;;;;;;6.03;4.83;;;12.50;1.00;;;;;;10560760;28;20265;-80
2023/09/03 02:34:29;;;;;;;8.55;5.32;;;12.50;1.00;;;;;;10545767;28;20548;-79
2023/09/03 02:39:50;;;;;;;5.73;4.43;;;12.50;1.00;;;;;;10531527;28;20280;-79
2023/09/03 02:45:11;;;;;;;6.10;4.83;;;12.50;1.00;;;;;;10545686;28;20280;-80
2023/09/03 02:50:35;;;;;;;7.82;5.60;;;12.50;1.00;;;;;;10559544;28;20288;-79
2023/09/03 02:55:58;;;;;;;8.40;5.90;;;12.50;1.00;;;;;;10545547;28;20446;-80
2023/09/03 03:01:20;;;;;;;9.45;5.93;;;12.50;1.00;;;;;;10536317;28;20224;-80
2023/09/03 03:06:42;;;;;;;11.13;5.55;;;12.50;1.00;;;;;;10552881;28;20215;-79
2023/09/03 03:12:03;;;;;;;5.43;4.75;;;12.50;1.00;;;;;;10568184;28;20426;-79
2023/09/03 03:17:26;;;;;;;13.10;5.20;;;12.50;1.00;;;;;;10552296;28;20229;-79
2023/09/03 03:22:47;;;;;;;7.38;5.53;;;12.50;1.00;;;;;;10538343;28;20201;-80
2023/09/03 03:28:09;;;;;;;7.27;4.77;;;12.40;99.90;;;;;;10567063;28;20205;-82
2023/09/03 03:33:30;;;;;;;9.27;5.20;;;12.50;99.90;;;;;;10552221;28;20251;-86
2023/09/03 03:38:51;;;;;;;7.85;5.45;;;12.50;99.90;;;;;;10552208;28;20202;-79
2023/09/03 03:44:13;;;;;;;8.83;5.17;;;12.50;1.00;;;;;;10565775;28;20496;-81
2023/09/03 03:49:34;;;;;;;8.50;5.53;;;12.40;99.90;;;;;;10550867;28;20239;-79
2023/09/03 03:54:55;;;;;;;8.88;5.10;;;12.40;99.90;;;;;;10551221;28;20226;-78
2023/09/03 04:00:16;;;;;;;9.02;5.15;;;12.40;1.00;;;;;;10565418;28;20241;-79
2023/09/03 04:05:38;;;;;;;7.07;5.05;;;12.30;1.00;;;;;;10550567;28;20206;-79
2023/09/03 04:11:01;;;;;;;10.52;6.30;;;12.30;99.90;;;;;;10549849;28;20199;-79
2023/09/03 04:16:22;;;;;;;10.23;6.07;;;12.40;1.00;;;;;;10535960;28;20222;-79
2023/09/03 04:21:45;;;;;;;9.48;5.68;;;12.40;74.90;;;;;;10550028;28;20198;-79
2023/09/03 04:27:08;;;;;;;7.47;5.87;;;;;;;;;;10549778;28;20203;-78
2023/09/03 04:32:30;;;;;;;9.63;6.63;;;12.50;1.00;;;;;;10549391;28;20501;-79
2023/09/03 04:37:51;;;;;;;6.05;4.97;;;12.50;99.90;;;;;;10563569;28;20236;-79
2023/09/03 04:43:13;;;;;;;9.10;5.47;;;12.50;1.00;;;;;;10549351;28;20228;-78
2023/09/03 04:48:36;;;;;;;8.43;5.90;;;12.60;1.00;;;;;;10563218;28;20233;-78
2023/09/03 04:53:57;;;;;;;6.80;5.47;;;12.70;54.30;;;;;;10563238;28;20452;-79
2023/09/03 04:59:18;;;;;;;11.20;5.80;;;12.70;21.30;;;;;;10562504;28;20218;-78
2023/09/03 05:04:40;;;;;;;6.90;5.10;;;12.80;85.90;;;;;;10534412;28;20209;-79
2023/09/03 05:10:02;;;;;;;9.15;5.57;;;12.90;99.90;;;;;;10562704;28;20195;-79
2023/09/03 05:15:24;;;;;;;6.90;5.70;;;13.00;1.00;;;;;;10547857;28;20566;-79
2023/09/03 05:20:45;;;;;;;8.38;6.18;;;13.00;99.90;;;;;;10562574;28;20190;-79
2023/09/03 05:26:06;;;;;;;12.57;8.38;;;13.10;1.00;;;;;;10506102;28;20430;-80
2023/09/03 05:31:31;;;;;;;6.38;4.72;;;13.20;1.00;;;;;;10505784;28;20393;-80
2023/09/03 05:37:20;;;;;;;5.80;3.75;;;13.50;1.00;;;;;;10550868;28;20608;-87
2023/09/03 05:43:01;;;;;;;3.40;3.08;;;13.70;99.90;;;;;;10508652;28;20260;-81
2023/09/03 05:48:23;;;;;;;3.25;2.55;;;14.00;1.00;;;;;;10525955;28;20241;-80
2023/09/03 05:53:45;;;;;;;4.50;3.00;;;14.40;99.90;;;;;;10546640;28;20236;-81
2023/09/03 05:59:08;;;;;;;4.32;2.40;;;14.80;97.40;;;;;;10561073;28;20193;-78
2023/09/03 06:04:50;;;;;;;2.83;2.50;;;15.00;99.90;;;;;;10549894;28;20498;-81
2023/09/03 06:10:11;;;;;;;4.25;2.83;;;15.30;1.00;;;;;;10547012;28;20219;-79
2023/09/03 06:15:33;;;;;;;4.38;2.92;;;15.40;1.00;;;;;;10546082;28;20240;-79
2023/09/03 06:20:54;;;;;;;3.83;2.95;;;15.60;1.00;;;;;;10561098;28;20197;-80
2023/09/03 06:26:15;;;;;;;3.67;3.05;;;15.60;1.00;;;;;;10519403;28;20193;-86
2023/09/03 06:31:36;;;;;;;3.10;2.80;;;15.80;99.90;;;;;;10504650;28;20542;-85
2023/09/03 06:36:57;;;;;;;4.95;2.67;;;16.60;99.90;;;;;;10542146;28;20236;-85
2023/09/03 06:42:19;;;;;;;3.78;2.65;;;17.70;1.00;;;;;;10554283;28;20452;-87
2023/09/03 06:47:40;;;;;;;6.70;2.72;;;18.50;99.90;;;;;;10568628;28;20252;-83
2023/09/03 06:53:01;;;;;;;7.72;2.42;;;19.30;1.00;;;;;;10554412;28;20247;-86
2023/09/03 06:58:22;;;;;;;4.78;2.60;;;20.10;1.00;;;;;;10568528;28;20205;-86
2023/09/03 07:03:44;;;;;;;5.38;2.85;;;21.00;1.00;;;;;;10569025;28;20237;-79
2023/09/03 07:09:05;;;;;;;2.15;1.83;;;21.50;1.00;;;;;;10567403;28;20202;-80
2023/09/03 07:14:30;;;;;;;3.05;2.20;;;22.20;1.00;;;;;;10567028;28;20244;-81
2023/09/03 07:19:55;;;;;;;4.60;2.50;;;22.80;1.00;;;;;;10566647;28;20265;-79
2023/09/03 07:25:16;;;;;;;5.60;2.47;;;23.40;99.90;;;;;;10567591;28;20538;-79
2023/09/03 07:30:39;;;;;;;4.57;2.17;;;23.90;99.90;;;;;;10567757;28;20217;-79
2023/09/03 07:36:00;;;;;;;3.72;2.10;;;24.30;99.90;;;;;;10566380;28;20225;-79
2023/09/03 07:54:32;;;;;;;2.67;1.88;;;24.80;99.90;;;;;;10565643;28;20297;-89
2023/09/03 07:59:54;;;;;;;3.28;1.63;;;23.70;99.90;;;;;;10551738;28;20206;-80
2023/09/03 08:05:17;;;;;;;4.07;1.92;;;22.60;99.90;;;;;;10565349;28;20196;-81
2023/09/03 08:10:38;;;;;;;2.95;1.65;;;21.80;99.90;;;;;;10564980;28;20190;-80
2023/09/03 08:15:59;;;;;;;3.80;1.80;;;21.50;1.00;;;;;;10550545;28;20226;-79
2023/09/03 08:21:20;;;;;;;4.60;1.80;;;21.80;1.00;;;;;;10564932;28;20193;-82
2023/09/03 08:26:41;;;;;;;3.30;1.73;;;22.20;1.00;;;;;;10535709;28;20236;-80
2023/09/03 08:32:03;;;;;;;2.78;2.00;;;23.00;99.90;;;;;;10564072;28;20199;-88
2023/09/03 08:37:26;;;;;;;7.70;2.55;;;22.90;99.90;;;;;;10549962;28;20226;-80
2023/09/03 08:42:48;;;;;;;3.97;1.95;;;23.70;99.90;;;;;;10549158;28;20202;-80
2023/09/03 08:48:10;;;;;;;8.07;1.77;;;25.20;99.90;;;;;;10548697;28;20501;-81
2023/09/03 08:53:34;;;;;;;4.43;1.40;;;26.20;99.90;;;;;;10548567;28;20231;-80
2023/09/03 08:58:55;;;;;;;2.88;1.30;;;25.60;99.90;;;;;;10521020;28;20187;-81
2023/09/03 09:04:16;;;;;;;2.22;1.50;;;24.60;99.90;;;;;;10520660;28;20199;-80
2023/09/03 09:09:38;;;;;;;2.97;1.38;;;24.10;99.90;;;;;;10520804;28;20195;-82
2023/09/03 09:15:04;;;;;;;6.20;1.42;;;24.30;99.90;;;;;;10520598;28;20231;-82
2023/09/03 09:20:25;;;;;;;3.80;1.63;;;25.60;99.90;;;;;;10520229;28;20547;-80
2023/09/03 09:25:47;;;;;;;5.88;1.90;;;25.70;99.90;;;;;;10535677;28;20275;-80
2023/09/03 09:31:11;;;;;;;3.05;1.48;;;26.40;99.90;;;;;;10520131;28;20547;-80
2023/09/03 09:36:33;;;;;;;2.72;1.63;;;25.90;99.90;;;;;;10547675;28;20279;-82
2023/09/03 09:42:07;;;;;;;4.72;1.48;;;24.50;99.90;;;;;;10561483;28;20275;-80
2023/09/03 09:47:28;;;;;;;5.22;1.50;;;24.50;99.90;;;;;;10561294;28;20194;-80
2023/09/03 09:52:50;;;;;;;5.65;1.30;;;25.70;99.90;;;;;;10535820;28;20234;-85
2023/09/03 09:58:13;;;;;;;4.47;1.80;;;26.40;99.90;;;;;;10558078;28;20224;-80
2023/09/03 10:03:48;;;;;;;3.78;1.40;;;;;;;;;;10532707;28;20198;-82
2023/09/03 10:09:25;;;;;;;3.88;1.25;;;;;;;;;;10546243;28;20209;-80
2023/09/03 10:14:46;;;;;;;2.25;1.15;;;;;;;;;;10560654;28;20229;-81
2023/09/03 10:20:18;;;;;;;5.10;2.22;;;;;;;;;;10546388;28;20190;-81
2023/09/03 10:25:42;;;;;;;3.28;1.92;;;;;;;;;;10545736;28;20512;-82
2023/09/03 10:31:11;;;;;;;2.17;1.25;;;;;;;;;;10547018;28;20504;-85
2023/09/03 10:36:34;;;;;;;3.28;1.60;;;;;;;;;;10561411;28;20398;-80
2023/09/03 10:42:16;;;;;;;2.10;1.50;;;;;;;;;;10546037;28;20209;-81
2023/09/03 10:48:01;;;;;;;3.35;1.70;;;;;;;;;;10559933;28;20527;-80
2023/09/03 10:53:37;;;;;;;2.13;1.45;;;;;;;;;;10535012;28;20234;-81
2023/09/03 10:59:00;;;;;;;3.67;1.60;;;26.60;99.90;;;;;;10518401;28;20237;-84
2023/09/03 11:04:22;;;;;;;2.28;1.35;;;26.20;99.90;;;;;;10520660;28;20431;-85
2023/09/03 11:09:43;;;;;;;3.90;1.20;;;26.30;99.90;;;;;;10518644;28;20217;-83
2023/09/03 11:15:06;;;;;;;4.30;1.25;;;;;;;;;;10518071;28;20245;-82
2023/09/03 11:20:33;;;;;;;3.95;1.35;;;;;;;;;;10505460;28;20195;-85
2023/09/03 11:26:05;;;;;;;2.90;1.40;;;;;;;;;;10525435;28;20195;-83
2023/09/03 11:31:28;;;;;;;4.00;1.55;;;;;;;;;;10524841;28;20194;-85
2023/09/03 11:36:51;;;;;;;3.60;1.30;;;;;;;;;;10541079;28;20232;-86
2023/09/03 11:42:14;;;;;;;3.10;1.35;;;;;;;;;;10538036;28;20203;-86
2023/09/03 11:47:42;;;;;;;5.60;1.85;;;;;;;;;;10551601;28;20227;-82
2023/09/03 11:53:05;;;;;;;3.70;1.85;;;;;;;;;;10524876;28;20231;-82
2023/09/03 11:58:28;;;;;;;4.20;1.40;;;;;;;;;;10551380;28;20227;-82
2023/09/03 12:03:51;;;;;;;2.92;1.50;;;;;;;;;;10566467;28;20187;-83
2023/09/03 12:09:14;;;;;;;5.15;2.08;;;;;;;;;;10551387;28;20252;-86
2023/09/03 12:14:36;;;;;;;1.98;1.30;;;25.20;99.90;;;;;;10536508;28;20271;-87
2023/09/03 12:21:07;;;;;;;2.40;1.35;;;25.00;99.90;;;;;;10565672;28;20432;-87
2023/09/03 12:26:48;;;;;;;2.30;1.67;;;24.30;99.90;;;;;;10525344;28;20195;-85
2023/09/03 12:32:15;;;;;;;2.45;1.50;;;24.50;99.90;;;;;;10509124;28;20221;-86
2023/09/03 12:37:42;;;;;;;4.18;1.52;;;24.50;99.90;;;;;;10562339;28;20230;-84
2023/09/03 12:43:04;;;;;;;1.40;1.30;;;24.50;99.90;;;;;;10523036;28;20199;-83
2023/09/03 12:48:24;;;;;;;4.57;1.38;;;24.30;99.90;;;;;;10545102;28;20269;-86
2023/09/03 12:53:47;;;;;;;2.28;1.60;;;24.10;99.90;;;;;;10563586;28;20616;-86
2023/09/03 12:59:08;;;;;;;2.47;1.38;;;24.20;99.90;;;;;;10549109;28;20230;-88
2023/09/03 13:04:31;;;;;;;3.47;1.67;;;23.90;99.90;;;;;;10563071;28;20418;-81
2023/09/03 13:09:52;;;;;;;3.33;1.30;;;23.80;99.90;;;;;;10563071;28;20194;-82
2023/09/03 13:15:14;;;;;;;1.90;1.38;;;23.60;99.90;;;;;;10562615;28;20341;-81
2023/09/03 13:20:35;;;;;;;2.83;1.30;;;23.70;99.90;;;;;;10547845;28;20194;-80
2023/09/03 13:25:56;;;;;;;3.25;1.30;;;23.70;99.90;;;;;;10547727;28;20386;-80
2023/09/03 13:31:21;;;;;;;3.53;1.70;;;23.30;99.90;;;;;;10547136;28;20195;-81
2023/09/03 13:36:42;;;;;;;4.30;1.80;;;22.90;99.90;;;;;;10533078;28;20233;-80
2023/09/03 13:42:03;;;;;;;2.55;1.15;;;22.50;99.90;;;;;;10519371;28;20213;-81
2023/09/03 13:47:24;;;;;;;3.70;1.55;;;22.40;99.90;;;;;;10518628;28;20199;-80
2023/09/03 13:52:46;;;;;;;9.32;1.77;;;21.80;1.00;;;;;;10504929;28;20253;-81
2023/09/03 13:58:08;;;;;;;3.28;1.48;;;;;;;;;;10560512;28;20249;-79
2023/09/03 14:03:29;;;;;;;2.35;1.23;;;;;;;;;;10546554;28;20437;-80
2023/09/03 14:08:50;;;;;;;3.20;1.52;;;21.70;99.90;;;;;;10560954;28;20257;-80
2023/09/03 14:14:12;;;;;;;4.20;1.30;;;21.70;99.90;;;;;;10546139;28;20247;-80
2023/09/03 14:19:33;;;;;;;5.10;1.70;;;21.50;99.90;;;;;;10560478;28;20516;-79
2023/09/03 14:24:54;;;;;;;4.07;1.60;;;21.40;99.90;;;;;;10561370;28;20197;-80
2023/09/03 14:30:15;;;;;;;2.17;1.40;;;21.20;99.90;;;;;;10545986;28;20198;-82
2023/09/03 14:35:39;;;;;;;4.80;1.52;;;21.20;99.90;;;;;;10560272;28;20228;-80
2023/09/03 14:41:00;;;;;;;4.68;1.88;;;21.00;99.90;;;;;;10545611;28;20281;-80
2023/09/03 14:46:21;;;;;;;3.97;1.42;;;21.00;99.90;;;;;;10546012;28;20212;-80
2023/09/03 14:51:42;;;;;;;5.38;1.30;;;;;;;;;;10545409;28;20288;-82
2023/09/03 14:57:04;;;;;;;4.20;1.95;;;20.60;99.90;;;;;;10549888;28;20600;-85
2023/09/03 15:02:25;;;;;;;5.38;1.63;;;20.30;99.90;;;;;;10568326;28;20190;-79
2023/09/03 15:07:46;;;;;;;7.05;1.88;;;20.30;17.50;;;;;;10568223;28;20194;-81
2023/09/03 15:13:07;;;;;;;2.80;1.48;;;20.10;99.90;;;;;;10567685;28;20205;-79
2023/09/03 15:18:29;;;;;;;5.00;2.08;;;20.10;99.90;;;;;;10568124;28;20218;-88
2023/09/03 15:23:50;;;;;;;5.43;2.25;;;;;;;;;;10539401;28;20273;-87
2023/09/03 15:29:13;;;;;;;5.70;2.03;;;19.70;99.90;;;;;;10553195;28;20572;-87
2023/09/03 15:34:34;;;;;;;3.97;1.67;;;19.50;99.90;;;;;;10552781;28;20220;-85
2023/09/03 15:39:55;;;;;;;4.25;1.60;;;19.30;99.90;;;;;;10544892;28;20209;-87
2023/09/03 15:45:17;;;;;;;7.03;2.00;;;19.20;99.90;;;;;;10566926;28;20201;-87
2023/09/03 15:50:41;;;;;;;7.82;2.00;;;19.20;99.90;;;;;;10566149;28;20195;-85
2023/09/03 15:56:02;;;;;;;8.70;2.15;;;19.10;99.90;;;;;;10567353;28;20228;-88
2023/09/03 16:01:23;;;;;;;4.15;2.28;;;19.00;99.90;;;;;;10566182;28;20194;-86
2023/09/03 16:06:44;;;;;;;4.95;1.70;;;18.90;99.90;;;;;;10564631;28;20269;-85
2023/09/03 16:12:06;;;;;;;5.18;2.28;;;18.90;99.90;;;;;;10565620;28;20371;-86
2023/09/03 16:17:27;;;;;;;6.35;2.15;;;18.80;99.90;;;;;;10565596;28;20263;-82
2023/09/03 16:22:49;;;;;;;6.30;1.92;;;18.70;99.90;;;;;;10550952;28;20198;-87
2023/09/03 16:28:10;;;;;;;5.35;2.40;;;18.70;99.90;;;;;;10536644;28;20202;-87
2023/09/03 16:33:31;;;;;;;3.67;1.77;;;18.70;99.90;;;;;;10550153;28;20497;-85
2023/09/03 16:38:53;;;;;;;3.55;1.80;;;18.70;99.90;;;;;;10549717;28;20297;-86
2023/09/03 16:44:15;;;;;;;10.38;2.60;;;18.60;99.90;;;;;;10550685;28;20236;-87
2023/09/03 16:49:38;;;;;;;4.45;1.95;;;18.60;99.90;;;;;;10553589;28;20194;-86
2023/09/03 16:55:00;;;;;;;2.30;1.75;;;18.40;1.00;;;;;;10569020;28;20606;-83
2023/09/03 17:00:21;;;;;;;6.60;1.92;;;18.30;1.00;;;;;;10565830;28;20421;-83
2023/09/03 17:05:43;;;;;;;6.15;1.88;;;18.20;1.00;;;;;;10563224;28;20202;-81
2023/09/03 17:11:04;;;;;;;8.00;2.10;;;18.00;1.00;;;;;;10548937;28;20428;-80
2023/09/03 17:16:25;;;;;;;6.18;2.80;;;18.00;1.00;;;;;;10562782;28;20228;-79
2023/09/03 17:21:46;;;;;;;8.50;2.88;;;18.00;1.00;;;;;;10561841;28;20220;-79
2023/09/03 17:27:08;;;;;;;7.10;2.28;;;17.90;1.00;;;;;;10562410;28;20585;-79
2023/09/03 17:32:29;;;;;;;9.02;2.08;;;17.80;1.00;;;;;;10547864;28;20202;-81
2023/09/03 17:37:50;;;;;;;3.58;1.65;;;17.70;1.00;;;;;;10562091;28;20228;-82
2023/09/03 17:43:12;;;;;;;5.28;1.60;;;17.60;1.00;;;;;;10520212;28;20599;-84
2023/09/03 17:48:33;;;;;;;6.95;2.67;;;17.60;1.00;;;;;;10528223;28;20496;-79
2023/09/03 17:53:54;;;;;;;5.60;2.38;;;17.60;1.00;;;;;;10561279;28;20221;-79
2023/09/03 17:59:15;;;;;;;6.68;2.35;;;17.60;1.00;;;;;;10532931;28;20535;-84
2023/09/03 18:04:38;;;;;;;6.60;2.15;;;17.50;1.00;;;;;;10561431;28;20273;-85
2023/09/03 18:09:59;;;;;;;10.63;3.25;;;17.40;22.50;;;;;;10533102;28;20224;-88
2023/09/03 18:15:21;;;;;;;6.53;2.05;;;17.30;53.40;;;;;;10561757;28;20516;-85
2023/09/03 18:20:42;;;;;;;5.65;2.15;;;17.30;99.90;;;;;;10546269;28;20205;-80
2023/09/03 18:26:03;;;;;;;7.15;2.00;;;17.20;99.90;;;;;;10520085;28;20198;-82
2023/09/03 18:31:25;;;;;;;10.88;2.33;;;17.20;99.90;;;;;;10524859;28;20271;-84
2023/09/03 18:36:46;;;;;;;2.63;1.60;;;17.10;99.90;;;;;;10559860;28;20260;-89
2023/09/03 18:42:07;;;;;;;8.30;1.98;;;17.20;99.90;;;;;;10569416;28;20208;-87
2023/09/03 18:47:28;;;;;;;5.68;2.45;;;17.10;99.90;;;;;;10554570;28;20205;-86
2023/09/03 18:52:49;;;;;;;5.30;2.03;;;17.20;99.90;;;;;;10526579;28;20219;-83
2023/09/03 18:58:10;;;;;;;4.78;1.80;;;17.20;1.00;;;;;;10563765;28;20229;-87
2023/09/03 19:03:32;;;;;;;4.53;1.90;;;17.10;1.00;;;;;;10553619;28;20200;-88
2023/09/03 19:08:53;;;;;;;4.88;1.55;;;17.10;1.00;;;;;;10539481;28;20208;-86
2023/09/03 19:14:14;;;;;;;2.47;1.75;;;17.10;1.00;;;;;;10568933;28;20190;-80
2023/09/03 19:19:35;;;;;;;6.90;1.88;;;17.10;1.00;;;;;;10567173;28;20232;-80
2023/09/03 19:24:57;;;;;;;3.28;1.75;;;17.10;1.00;;;;;;10538094;28;20262;-80
2023/09/03 19:30:18;;;;;;;5.07;2.00;;;17.10;1.00;;;;;;10567482;28;20559;-79
2023/09/03 19:35:39;;;;;;;3.58;1.63;;;17.00;1.00;;;;;;10552087;28;20399;-80
2023/09/03 19:41:00;;;;;;;6.03;2.20;;;17.00;1.00;;;;;;10538015;28;20210;-80
2023/09/03 19:46:21;;;;;;;4.80;1.63;;;17.00;1.00;;;;;;10551931;28;20208;-80
2023/09/03 19:51:43;;;;;;;6.35;1.98;;;17.00;1.00;;;;;;10565786;28;20233;-80
2023/09/03 19:57:04;;;;;;;3.50;1.95;;;17.10;1.00;;;;;;10551442;28;20264;-80
2023/09/03 20:02:25;;;;;;;4.07;2.03;;;17.10;1.00;;;;;;10537470;28;20201;-80
2023/09/03 20:07:47;;;;;;;2.83;1.67;;;17.00;1.00;;;;;;10565539;28;20205;-84
2023/09/03 20:13:09;;;;;;;2.85;1.80;;;17.00;1.00;;;;;;10566953;28;20243;-86
2023/09/03 20:18:30;;;;;;;7.10;1.92;;;17.00;99.90;;;;;;10565790;28;20222;-88
2023/09/03 20:23:51;;;;;;;9.25;2.38;;;16.90;99.90;;;;;;10565236;28;20265;-81
2023/09/03 20:29:14;;;;;;;6.28;2.13;;;17.00;99.90;;;;;;10564884;28;20350;-86
2023/09/03 20:34:42;;;;;;;4.85;1.73;;;16.90;99.90;;;;;;10564648;28;20268;-85
2023/09/03 20:40:04;;;;;;;5.78;2.15;;;17.00;99.90;;;;;;10526628;28;20226;-85
2023/09/03 20:45:25;;;;;;;4.57;1.88;;;16.90;99.90;;;;;;10549680;28;20199;-84
2023/09/03 20:50:47;;;;;;;5.18;1.73;;;16.80;1.00;;;;;;10564385;28;20197;-80
2023/09/03 20:56:08;;;;;;;3.58;1.80;;;16.80;1.00;;;;;;10562487;28;20444;-80
2023/09/03 21:01:29;;;;;;;5.53;2.05;;;16.70;1.00;;;;;;10562759;28;20373;-81
2023/09/03 21:06:51;;;;;;;4.13;1.90;;;16.60;1.00;;;;;;10548925;28;20480;-80
2023/09/03 21:12:12;;;;;;;4.60;1.80;;;16.50;1.00;;;;;;10548192;28;20245;-82
2023/09/03 21:17:33;;;;;;;8.95;2.08;;;16.40;3.50;;;;;;10548320;28;20237;-82
2023/09/03 21:22:54;;;;;;;4.93;2.03;;;16.30;99.90;;;;;;10548045;28;20276;-80
2023/09/03 21:28:16;;;;;;;4.50;2.08;;;16.30;99.90;;;;;;10547854;28;20206;-80
2023/09/03 21:33:37;;;;;;;5.63;2.00;;;16.30;99.90;;;;;;10562941;28;20189;-81
2023/09/03 21:38:58;;;;;;;6.82;2.30;;;16.10;1.00;;;;;;10561095;28;20227;-81
2023/09/03 21:44:19;;;;;;;7.88;1.92;;;16.10;54.30;;;;;;10561450;28;20204;-82
2023/09/03 21:49:40;;;;;;;4.93;1.95;;;16.10;1.00;;;;;;10561581;28;20207;-80
2023/09/03 21:55:02;;;;;;;4.63;2.20;;;16.10;99.90;;;;;;10560732;28;20300;-82
2023/09/03 22:00:26;;;;;;;5.32;2.30;;;16.10;99.90;;;;;;10532321;28;20547;-84
2023/09/03 22:05:47;;;;;;;3.97;1.73;;;16.00;1.00;;;;;;10545333;28;20198;-81
2023/09/03 22:11:11;;;;;;;6.20;2.00;;;16.00;1.00;;;;;;10560003;28;20269;-80
2023/09/03 22:16:33;;;;;;;6.28;1.90;;;16.00;1.00;;;;;;10560921;28;20215;-80
2023/09/03 22:21:55;;;;;;;6.30;2.28;;;16.00;1.00;;;;;;10560607;28;20241;-81
2023/09/03 22:27:16;;;;;;;4.32;2.40;;;16.00;1.00;;;;;;10560633;28;20488;-87
2023/09/03 22:32:37;;;;;;;2.88;1.70;;;16.00;1.00;;;;;;10560720;28;20198;-80
2023/09/03 22:37:58;;;;;;;4.03;1.98;;;16.00;1.00;;;;;;10559942;28;20312;-86
2023/09/03 22:43:20;;;;;;;3.47;2.25;;;16.00;1.00;;;;;;10519166;28;20193;-87
2023/09/03 22:48:41;;;;;;;5.38;2.38;;;16.00;99.90;;;;;;10526941;28;20208;-81
2023/09/03 22:54:03;;;;;;;4.28;2.15;;;16.00;99.90;;;;;;10560036;28;20233;-86
2023/09/03 22:59:24;;;;;;;4.40;1.85;;;16.10;7.10;;;;;;10546969;28;20236;-88
2023/09/03 23:04:45;;;;;;;2.25;1.85;;;16.10;1.00;;;;;;10534019;28;20202;-87
2023/09/03 23:10:07;;;;;;;4.45;2.17;;;16.00;1.00;;;;;;10547692;28;20202;-89
2023/09/03 23:15:28;;;;;;;4.65;2.33;;;16.00;99.90;;;;;;10560884;28;20192;-88
2023/09/03 23:20:51;;;;;;;4.38;2.30;;;15.90;1.00;;;;;;10553204;28;20280;-87
2023/09/03 23:26:15;;;;;;;3.30;1.80;;;15.90;99.90;;;;;;10526325;28;20416;-86
2023/09/03 23:31:37;;;;;;;4.05;2.35;;;15.90;99.90;;;;;;10525304;28;20561;-88
2023/09/03 23:36:58;;;;;;;4.63;2.50;;;15.90;99.90;;;;;;10528041;28;20305;-86
2023/09/03 23:42:20;;;;;;;4.47;2.63;;;15.90;12.30;;;;;;10510380;28;20420;-88
2023/09/03 23:47:42;;;;;;;3.85;1.95;;;15.90;1.00;;;;;;10527672;28;20517;-88
2023/09/03 23:53:03;;;;;;;5.13;2.15;;;15.90;1.00;;;;;;10566145;28;20247;-88
2023/09/03 23:58:24;;;;;;;7.85;3.58;;;15.80;1.00;;;;;;10566441;28;20228;-88
